Time;durP1;ratioP1;P1;durP2;ratioP2;P2;SDS_P1;SDS_P2;PMS_P1;PMS_P2;Temp;Humidity;BMP_temperature;BMP_pressure;BME280_temperature;BME280_humidity;BME280_pressure;Samples;Min_cycle;Max_cycle;Signal;HPM_P1;HPM_P2
2021/12/11 00:00:09;;;;;;;;;0.00;0.00;;;;;5.22;65.96;100687.13;5093329;27;45358;-84
2021/12/11 00:02:34;;;;;;;;;0.00;0.00;;;;;5.06;66.17;100647.97;5094564;27;45492;-85
2021/12/11 00:05:01;;;;;;;;;1.00;1.00;;;;;5.53;65.64;100732.81;5088107;27;45484;-85
2021/12/11 00:07:31;;;;;;;;;0.00;0.00;;;;;5.12;65.63;100678.25;5103408;27;45390;-84
2021/12/11 00:10:09;;;;;;;;;0.00;0.00;;;;;5.03;65.83;100673.69;5089767;27;45376;-84
2021/12/11 00:12:52;;;;;;;;;0.00;0.00;;;;;5.48;65.80;100749.00;5095205;27;45444;-84
2021/12/11 00:15:25;;;;;;;;;0.00;0.00;;;;;5.10;66.22;100685.06;5088733;27;45473;-84
2021/12/11 00:18:08;;;;;;;;;1.00;0.00;;;;;5.53;66.05;100766.38;5100220;27;45309;-84
2021/12/11 00:20:40;;;;;;;;;0.00;0.00;;;;;4.96;65.67;100669.16;5097804;27;45289;-84
2021/12/11 00:23:06;;;;;;;;;0.00;0.00;;;;;4.85;65.67;100643.91;5104121;27;45568;-85
2021/12/11 00:25:32;;;;;;;;;0.00;0.00;;;;;5.61;66.19;100786.38;5088140;27;45422;-84
2021/12/11 00:28:05;;;;;;;;;0.00;0.00;;;;;5.54;65.73;100757.78;5104668;27;45319;-84
2021/12/11 00:30:37;;;;;;;;;1.00;1.00;;;;;5.65;65.71;100777.91;5092645;27;45655;-84
2021/12/11 00:33:13;;;;;;;;;0.00;0.00;;;;;5.05;65.88;100683.22;5087034;27;45998;-84
2021/12/11 00:35:40;;;;;;;;;2.00;0.00;;;;;4.80;65.94;100641.19;5078655;28;45316;-85
2021/12/11 00:38:11;;;;;;;;;0.00;0.00;;;;;5.43;66.05;100743.69;5094731;27;45399;-85
2021/12/11 00:40:39;;;;;;;;;0.00;0.00;;;;;5.44;66.16;100758.34;5092977;27;45369;-84
2021/12/11 00:43:07;;;;;;;;;0.00;0.00;;;;;5.25;65.66;100737.16;5099268;27;45535;-85
2021/12/11 00:45:39;;;;;;;;;0.00;0.00;;;;;5.48;66.08;100765.34;5087802;27;45365;-84
2021/12/11 00:48:10;;;;;;;;;0.00;0.00;;;;;5.04;65.97;100702.13;5097307;27;45382;-84
2021/12/11 00:50:47;;;;;;;;;0.00;0.00;;;;;4.89;65.93;100699.03;5096409;27;45335;-84
2021/12/11 00:53:18;;;;;;;;;0.00;0.00;;;;;5.66;66.27;100815.81;5087858;27;45454;-84
2021/12/11 00:55:51;;;;;;;;;0.00;0.00;;;;;5.47;65.78;100804.94;5099217;27;45400;-85
2021/12/11 00:58:19;;;;;;;;;0.00;0.00;;;;;5.56;66.26;100820.72;5085774;27;45451;-83
2021/12/11 01:00:48;;;;;;;;;0.00;0.00;;;;;5.57;66.16;100822.44;5097611;27;45659;-84
2021/12/11 01:03:18;;;;;;;;;0.00;0.00;;;;;5.32;66.04;100785.56;5085979;27;46944;-84
2021/12/11 01:05:49;;;;;;;;;1.00;0.00;;;;;5.55;66.12;100824.09;5101369;27;45435;-84
2021/12/11 01:08:32;;;;;;;;;0.00;0.00;;;;;5.58;66.26;100841.41;5092131;27;45432;-84
2021/12/11 01:11:20;;;;;;;;;0.00;0.00;;;;;5.04;66.40;100748.56;5090923;27;45531;-84
2021/12/11 01:13:52;;;;;;;;;0.00;0.00;;;;;5.33;66.42;100815.69;5071587;27;47921;-84
2021/12/11 01:16:18;;;;;;;;;0.00;0.00;;;;;5.14;66.38;100775.53;5092632;27;45497;-84
2021/12/11 01:18:47;;;;;;;;;0.00;0.00;;;;;5.14;66.60;100788.44;5091262;27;45412;-84
2021/12/11 01:24:28;;;;;;;;;0.00;0.00;;;;;5.57;66.17;100880.97;5097862;27;45384;-84
2021/12/11 01:26:55;;;;;;;;;0.00;0.00;;;;;5.30;66.14;100841.41;5088710;27;45387;-84
2021/12/11 01:29:24;;;;;;;;;0.00;0.00;;;;;5.31;66.57;100861.25;5102208;27;45444;-84
2021/12/11 01:31:51;;;;;;;;;0.75;0.00;;;;;5.32;66.56;100869.84;5101378;27;45471;-85
2021/12/11 01:34:18;;;;;;;;;0.00;0.00;;;;;5.04;66.20;100814.75;5091757;27;45421;-84
2021/12/11 01:36:43;;;;;;;;;1.25;0.25;;;;;5.25;66.42;100867.91;5089953;27;45727;-84
2021/12/11 01:39:14;;;;;;;;;0.00;0.00;;;;;4.95;66.50;100820.50;5100456;27;45795;-84
2021/12/11 01:41:41;;;;;;;;;0.00;0.00;;;;;5.12;66.36;100836.56;5071110;27;45317;-83
2021/12/11 01:44:14;;;;;;;;;0.00;0.00;;;;;5.28;66.53;100874.06;5098593;27;46248;-83
2021/12/11 01:46:40;;;;;;;;;0.00;0.00;;;;;4.78;66.47;100797.59;5094418;27;45517;-83
2021/12/11 01:49:11;;;;;;;;;0.00;0.00;;;;;4.80;66.34;100805.38;5087708;27;45354;-83
2021/12/11 01:51:59;;;;;;;;;0.00;0.00;;;;;5.03;66.59;100834.53;5071993;27;45352;-83
2021/12/11 01:54:25;;;;;;;;;0.00;0.00;;;;;5.52;66.43;100908.38;5080924;28;47787;-84
2021/12/11 01:56:59;;;;;;;;;0.00;0.00;;;;;5.22;66.16;100871.28;5082939;28;45315;-83
2021/12/11 01:59:35;;;;;;;;;0.00;0.00;;;;;5.39;66.67;100896.78;5085013;27;45414;-84
2021/12/11 02:02:13;;;;;;;;;0.00;0.00;;;;;5.55;66.57;100919.66;5097637;27;45508;-84
2021/12/11 02:04:44;;;;;;;;;0.00;0.00;;;;;5.37;66.42;100895.84;5094190;27;48191;-85
2021/12/11 02:07:15;;;;;;;;;0.00;0.00;;;;;5.57;66.53;100927.44;5086460;27;45419;-84
2021/12/11 02:09:44;;;;;;;;;0.00;0.00;;;;;5.18;66.31;100885.78;5072145;27;45403;-84
2021/12/11 02:12:37;;;;;;;;;0.00;0.00;;;;;4.76;66.67;100812.16;5094886;27;45569;-83
2021/12/11 02:15:07;;;;;;;;;0.00;0.00;;;;;5.36;66.34;100927.66;5077707;27;45477;-84
2021/12/11 02:17:44;;;;;;;;;0.00;0.00;;;;;5.33;66.72;100931.00;5100163;27;45362;-84
2021/12/11 02:20:13;;;;;;;;;0.00;0.00;;;;;5.19;66.79;100923.69;5091632;27;45323;-84
2021/12/11 02:22:46;;;;;;;;;0.00;0.00;;;;;4.98;66.66;100898.00;5091949;27;45508;-83
2021/12/11 02:25:21;;;;;;;;;0.00;0.00;;;;;5.11;67.06;100921.66;5096936;27;46122;-84
2021/12/11 02:28:20;;;;;;;;;0.00;0.00;;;;;5.03;66.66;100914.50;5088165;27;45354;-84
2021/12/11 02:31:18;;;;;;;;;0.00;0.00;;;;;5.43;66.70;100976.94;5088515;27;45402;-84
2021/12/11 02:33:56;;;;;;;;;1.00;0.00;;;;;5.41;66.22;100978.59;5098507;27;45514;-84
2021/12/11 02:36:32;;;;;;;;;0.00;0.00;;;;;4.88;66.77;100886.50;5094142;27;47654;-83
2021/12/11 02:39:29;;;;;;;;;0.00;0.00;;;;;5.10;67.07;100912.16;5117238;27;45402;-84
2021/12/11 02:41:58;;;;;;;;;0.00;0.00;;;;;5.43;66.21;100976.94;5054715;28;45494;-83
2021/12/11 02:44:34;;;;;;;;;0.00;0.00;;;;;5.46;66.93;100978.78;5079653;27;45568;-84
2021/12/11 02:47:15;;;;;;;;;0.00;0.00;;;;;5.46;67.09;100986.50;5096673;27;47119;-84
2021/12/11 02:49:52;;;;;;;;;3.00;1.00;;;;;5.46;66.40;100996.84;5070372;27;45363;-84
2021/12/11 02:52:46;;;;;;;;;0.25;0.00;;;;;5.11;66.92;100937.16;5093137;27;45370;-84
2021/12/11 02:55:27;;;;;;;;;0.00;0.00;;;;;5.21;66.99;100962.44;5083484;27;45420;-84
2021/12/11 02:58:03;;;;;;;;;1.00;1.00;;;;;5.16;66.58;100958.81;5081920;27;45416;-84
2021/12/11 03:00:49;;;;;;;;;0.00;0.00;;;;;5.00;66.41;100941.94;5092942;27;45850;-84
2021/12/11 03:03:17;;;;;;;;;0.00;0.00;;;;;5.23;67.27;100996.91;5084957;27;45411;-84
2021/12/11 03:05:52;;;;;;;;;0.50;0.00;;;;;4.65;66.92;100914.03;5097666;27;45446;-84
2021/12/11 03:08:21;;;;;;;;;0.00;0.00;;;;;4.71;66.75;100926.31;5092246;27;45531;-84
2021/12/11 03:10:50;;;;;;;;;0.00;0.00;;;;;5.13;67.34;101012.91;5101548;27;45440;-84
2021/12/11 03:13:15;;;;;;;;;0.00;0.00;;;;;4.69;67.28;100962.38;5088049;27;45433;-84
2021/12/11 03:15:41;;;;;;;;;0.00;0.00;;;;;4.53;67.18;100936.00;5096849;27;45389;-84
2021/12/11 03:18:08;;;;;;;;;0.00;0.00;;;;;5.10;67.25;101036.03;5089668;27;46140;-84
2021/12/11 03:20:36;;;;;;;;;0.00;0.00;;;;;5.11;67.42;101043.81;5091676;27;45622;-84
2021/12/11 03:23:02;;;;;;;;;0.00;0.00;;;;;5.07;67.67;101032.53;5096008;27;45392;-85
2021/12/11 03:25:29;;;;;;;;;0.00;0.00;;;;;4.56;67.03;100963.59;5083635;27;45374;-84
2021/12/11 03:27:55;;;;;;;;;0.00;0.00;;;;;4.88;67.87;101038.72;5088849;27;45517;-84
2021/12/11 03:30:27;;;;;;;;;0.00;0.00;;;;;4.85;67.71;101040.28;5091732;27;45391;-85
2021/12/11 03:32:56;;;;;;;;;0.00;0.00;;;;;4.46;67.61;100980.44;5085708;27;45394;-85
2021/12/11 03:35:23;;;;;;;;;0.00;0.00;;;;;4.90;67.74;101069.75;5098842;27;45454;-84
2021/12/11 03:37:50;;;;;;;;;0.75;0.75;;;;;4.43;67.54;100999.25;5097525;27;45379;-84
2021/12/11 03:40:16;;;;;;;;;0.00;0.00;;;;;4.31;67.95;100976.44;5091799;27;45351;-85
2021/12/11 03:42:48;;;;;;;;;0.00;0.00;;;;;4.80;67.47;101074.53;5089428;27;45412;-84
2021/12/11 03:45:22;;;;;;;;;0.00;0.00;;;;;4.66;67.55;101066.25;5097830;27;45558;-85
2021/12/11 03:47:57;;;;;;;;;0.00;0.00;;;;;4.14;68.00;100986.09;5086669;27;46177;-84
2021/12/11 03:50:23;;;;;;;;;0.00;0.00;;;;;4.26;68.39;101026.94;5090765;27;45421;-84
2021/12/11 03:52:51;;;;;;;;;1.00;0.00;;;;;4.00;68.14;100970.09;5084270;27;45681;-85
2021/12/11 03:55:23;;;;;;;;;0.00;0.00;;;;;4.08;68.93;101000.44;5078754;27;45441;-85
2021/12/11 03:57:55;;;;;;;;;0.00;0.00;;;;;4.16;68.60;101006.75;5083152;27;45758;-85
2021/12/11 04:00:23;;;;;;;;;0.00;0.00;;;;;4.59;69.17;101089.19;5095658;27;45686;-84
2021/12/11 04:02:51;;;;;;;;;0.00;0.00;;;;;3.88;69.35;100962.78;5089527;27;45689;-85
2021/12/11 04:05:17;;;;;;;;;0.00;0.00;;;;;4.14;67.90;101005.84;5081885;27;45681;-85
2021/12/11 04:07:47;;;;;;;;;0.00;0.00;;;;;4.50;68.59;101063.94;5099541;27;47877;-85
2021/12/11 04:10:15;;;;;;;;;0.00;0.00;;;;;3.94;68.61;100982.75;5093410;27;45303;-85
2021/12/11 04:12:42;;;;;;;;;1.00;0.00;;;;;4.69;68.87;101099.06;5093890;27;45401;-84
2021/12/11 04:15:09;;;;;;;;;0.00;0.00;;;;;4.38;69.02;101051.44;5100885;27;45462;-85
2021/12/11 04:17:36;;;;;;;;;0.00;0.00;;;;;4.14;68.71;101021.31;5106124;27;48620;-85
2021/12/11 04:20:09;;;;;;;;;0.25;0.00;;;;;4.39;68.70;101081.56;5098170;27;45404;-85
2021/12/11 04:22:35;;;;;;;;;0.00;0.00;;;;;4.63;68.43;101102.25;5063670;28;45462;-85
2021/12/11 04:25:03;;;;;;;;;1.00;0.00;;;;;4.11;68.63;101036.66;5065703;28;45492;-85
2021/12/11 04:27:28;;;;;;;;;0.00;0.00;;;;;4.20;68.70;101044.75;5100219;27;46667;-85
2021/12/11 04:29:54;;;;;;;;;0.00;0.00;;;;;4.14;69.02;101054.81;5090589;27;45381;-85
2021/12/11 04:32:22;;;;;;;;;0.00;0.00;;;;;4.09;69.11;101046.88;5102476;27;45470;-85
2021/12/11 04:34:48;;;;;;;;;1.00;1.00;;;;;4.65;69.24;101131.56;5090423;27;45501;-85
2021/12/11 04:37:28;;;;;;;;;0.00;0.00;;;;;4.46;68.63;101111.91;5100435;27;46994;-85
2021/12/11 04:40:00;;;;;;;;;0.00;0.00;;;;;4.28;68.78;101073.38;5091381;27;45356;-86
2021/12/11 04:43:14;;;;;;;;;0.00;0.00;;;;;4.67;69.06;101148.00;5093540;27;45460;-85
2021/12/11 04:45:24;;;;;;;;;0.00;0.00;;;;;4.42;68.62;101108.34;5092976;27;45576;-85
2021/12/11 04:48:12;;;;;;;;;0.00;0.00;;;;;4.50;69.13;101108.63;5088456;27;46485;-86
2021/12/11 04:50:49;;;;;;;;;0.00;0.00;;;;;4.17;68.51;101054.94;5106826;27;45467;-85
2021/12/11 04:58:42;;;;;;;;;0.00;0.00;;;;;4.31;69.10;101097.59;5087116;27;45621;-85
2021/12/11 05:01:30;;;;;;;;;0.00;0.00;;;;;4.51;68.63;101127.56;5081239;27;45596;-85
2021/12/11 05:11:52;;;;;;;;;1.00;0.00;;;;;4.47;69.06;101105.94;5084335;28;45697;-85
2021/12/11 05:14:19;;;;;;;;;0.00;0.00;;;;;4.66;68.64;101137.63;5081971;28;45587;-85
2021/12/11 05:16:45;;;;;;;;;0.00;0.00;;;;;4.36;68.57;101086.59;5099656;27;45565;-85
2021/12/11 05:19:11;;;;;;;;;0.00;0.00;;;;;4.71;68.47;101125.78;5081632;27;45357;-85
2021/12/11 05:21:38;;;;;;;;;0.00;0.00;;;;;4.61;68.79;101131.38;5100114;27;45379;-86
2021/12/11 05:24:05;;;;;;;;;0.00;0.00;;;;;4.40;68.49;101098.78;5090759;27;45470;-86
2021/12/11 05:26:31;;;;;;;;;0.00;0.00;;;;;4.16;68.72;101084.97;5092692;27;45523;-86
2021/12/11 05:28:56;;;;;;;;;0.00;0.00;;;;;4.69;68.78;101174.72;5092807;27;47055;-85
2021/12/11 05:31:22;;;;;;;;;0.00;0.00;;;;;4.52;69.18;101150.84;5090141;27;45458;-85
2021/12/11 05:33:48;;;;;;;;;0.00;0.00;;;;;4.64;68.54;101176.25;5081122;27;45445;-85
2021/12/11 05:36:16;;;;;;;;;1.00;0.00;;;;;4.26;69.06;101103.38;5083639;27;45433;-84
2021/12/11 05:38:43;;;;;;;;;0.00;0.00;;;;;4.45;68.93;101138.53;5089531;27;47201;-85
2021/12/11 05:41:12;;;;;;;;;0.00;0.00;;;;;4.42;68.70;101136.72;5100995;27;45452;-85
2021/12/11 05:43:39;;;;;;;;;0.00;0.00;;;;;4.52;68.71;101163.72;5072036;27;45305;-84
2021/12/11 05:46:09;;;;;;;;;0.00;0.00;;;;;4.38;68.69;101133.94;5077732;27;45402;-85
2021/12/11 05:48:38;;;;;;;;;0.00;0.00;;;;;4.42;68.69;101143.56;5099170;27;47329;-85
2021/12/11 05:51:08;;;;;;;;;0.00;0.00;;;;;4.30;68.64;101119.03;5086328;27;45470;-84
2021/12/11 05:53:34;;;;;;;;;0.00;0.00;;;;;4.57;68.92;101177.69;5088308;27;45491;-85
2021/12/11 05:56:06;;;;;;;;;0.00;0.00;;;;;4.46;68.58;101170.31;5096688;27;45545;-85
2021/12/11 05:58:46;;;;;;;;;0.00;0.00;;;;;4.43;68.62;101174.56;5095470;27;45557;-85
2021/12/11 06:01:18;;;;;;;;;0.00;0.00;;;;;4.88;68.76;101252.84;5088355;27;45559;-85
2021/12/11 06:03:44;;;;;;;;;0.00;0.00;;;;;4.86;68.83;101267.38;5098443;27;45507;-85
2021/12/11 06:06:09;;;;;;;;;0.00;0.00;;;;;4.71;68.68;101248.72;5075105;27;45374;-85
2021/12/11 06:08:35;;;;;;;;;0.00;0.00;;;;;4.51;69.10;101210.09;5096239;27;46219;-85
2021/12/11 06:11:04;;;;;;;;;0.00;0.00;;;;;4.37;68.34;101192.34;5087533;27;45307;-85
2021/12/11 06:13:29;;;;;;;;;0.00;0.00;;;;;4.71;68.25;101248.72;5099191;27;45621;-85
2021/12/11 06:15:56;;;;;;;;;0.00;0.00;;;;;4.79;69.00;101266.28;5084285;28;45330;-85
2021/12/11 06:18:21;;;;;;;;;0.00;0.00;;;;;4.31;69.04;101190.41;5093580;27;45394;-84
2021/12/11 06:20:48;;;;;;;;;0.00;0.00;;;;;4.73;68.76;101265.13;5088030;27;45645;-84
2021/12/11 06:23:15;;;;;;;;;2.00;0.00;;;;;4.66;68.95;101262.28;5111400;27;45385;-84
2021/12/11 06:25:41;;;;;;;;;1.00;0.00;;;;;4.36;68.83;101223.22;5101616;27;44882;-84
2021/12/11 06:28:08;;;;;;;;;1.00;1.00;;;;;4.36;68.76;101226.69;5108740;27;45372;-84
2021/12/11 06:30:35;;;;;;;;;0.00;0.00;;;;;4.54;69.01;101243.72;5088842;27;45318;-86
2021/12/11 06:33:01;;;;;;;;;0.00;0.00;;;;;4.42;68.39;101232.09;5083634;27;45426;-84
2021/12/11 06:35:36;;;;;;;;;0.00;0.00;;;;;4.57;68.89;101261.91;5085607;27;45306;-84
2021/12/11 06:38:05;;;;;;;;;0.00;0.00;;;;;4.55;68.97;101250.66;5091204;27;47473;-84
2021/12/11 06:40:31;;;;;;;;;0.00;0.00;;;;;4.60;68.79;101269.78;5090735;27;45832;-85
2021/12/11 06:42:56;;;;;;;;;0.25;0.00;;;;;3.88;69.04;101155.06;5083680;27;45538;-85
2021/12/11 06:45:23;;;;;;;;;0.00;0.00;;;;;4.55;68.90;101259.28;5085856;27;45396;-84
2021/12/11 06:47:49;;;;;;;;;2.00;2.00;;;;;4.45;69.15;101254.53;5098384;27;46378;-85
2021/12/11 06:50:16;;;;;;;;;0.00;0.00;;;;;4.44;69.02;101253.66;5086236;27;45365;-84
2021/12/11 06:52:42;;;;;;;;;0.00;0.00;;;;;4.61;68.61;101289.59;5086631;27;45497;-85
2021/12/11 06:55:09;;;;;;;;;0.00;0.00;;;;;4.69;68.66;101320.88;5082822;27;45542;-85
2021/12/11 06:57:34;;;;;;;;;0.00;0.00;;;;;4.48;68.80;101285.63;5087741;27;48020;-85
2021/12/11 07:00:01;;;;;;;;;1.00;1.00;;;;;4.78;69.02;101336.72;5092752;27;45432;-85
2021/12/11 07:02:26;;;;;;;;;0.00;0.00;;;;;4.20;68.73;101256.09;5088679;27;45375;-85
2021/12/11 07:04:55;;;;;;;;;0.00;0.00;;;;;4.03;68.57;101233.03;5085652;27;45477;-84
2021/12/11 07:07:25;;;;;;;;;0.00;0.00;;;;;4.17;68.53;101263.69;5099917;27;47281;-85
2021/12/11 07:09:53;;;;;;;;;0.50;0.50;;;;;4.48;68.72;101326.88;5095958;27;45947;-84
2021/12/11 07:12:19;;;;;;;;;0.00;0.00;;;;;4.05;68.58;101249.41;5091245;27;45663;-86
2021/12/11 07:14:46;;;;;;;;;0.00;0.00;;;;;4.47;69.04;101329.38;5089712;27;46373;-85
2021/12/11 07:17:12;;;;;;;;;0.00;0.00;;;;;4.34;69.06;101315.06;5093339;27;45361;-85
2021/12/11 07:19:38;;;;;;;;;0.00;0.00;;;;;4.30;69.47;101335.56;5082166;27;45524;-86
2021/12/11 07:22:04;;;;;;;;;0.00;0.00;;;;;4.41;68.77;101353.22;5095050;27;45283;-86
2021/12/11 07:24:43;;;;;;;;;0.00;0.00;;;;;4.08;69.69;101307.06;5084238;27;45465;-86
2021/12/11 07:27:10;;;;;;;;;0.00;0.00;;;;;4.11;69.60;101302.06;5082307;27;46572;-85
2021/12/11 07:29:36;;;;;;;;;0.00;0.00;;;;;4.23;69.28;101328.34;5069212;27;45806;-85
2021/12/11 07:32:04;;;;;;;;;0.00;0.00;;;;;4.61;69.60;101392.75;5098454;27;45443;-86
2021/12/11 07:34:30;;;;;;;;;0.00;0.00;;;;;4.36;69.50;101353.00;5093728;27;45337;-85
2021/12/11 07:36:57;;;;;;;;;0.00;0.00;;;;;4.63;69.26;101397.97;5101740;27;46184;-84
2021/12/11 07:39:24;;;;;;;;;0.00;0.00;;;;;4.15;69.81;101309.09;5088729;27;45431;-84
2021/12/11 07:41:52;;;;;;;;;0.00;0.00;;;;;4.20;69.00;101330.81;5100272;27;45417;-85
2021/12/11 07:44:17;;;;;;;;;0.00;0.00;;;;;4.67;69.14;101410.19;5093850;27;45376;-84
2021/12/11 07:46:43;;;;;;;;;0.00;0.00;;;;;4.57;69.57;101398.59;5091566;27;48311;-85
2021/12/11 07:49:09;;;;;;;;;0.00;0.00;;;;;4.50;69.45;101397.44;5091311;27;45409;-85
2021/12/11 07:51:37;;;;;;;;;0.00;0.00;;;;;4.12;68.99;101325.31;5114787;27;45387;-86
2021/12/11 07:54:03;;;;;;;;;0.00;0.00;;;;;4.52;69.07;101400.06;5082668;27;45579;-85
2021/12/11 07:56:30;;;;;;;;;0.00;0.00;;;;;4.44;69.31;101379.09;5087441;27;47413;-86
2021/12/11 07:58:59;;;;;;;;;0.00;0.00;;;;;4.14;69.00;101327.97;5092778;27;45327;-85
2021/12/11 08:01:27;;;;;;;;;0.00;0.00;;;;;4.56;69.15;101399.38;5083563;27;44851;-85
2021/12/11 08:03:57;;;;;;;;;0.00;0.00;;;;;4.64;69.18;101423.84;5065700;27;45551;-84
2021/12/11 08:06:22;;;;;;;;;0.00;0.00;;;;;4.07;68.71;101341.38;5079475;27;45687;-86
2021/12/11 08:08:48;;;;;;;;;0.00;0.00;;;;;4.76;68.66;101444.13;5095943;27;45808;-84
2021/12/11 08:11:17;;;;;;;;;0.00;0.00;;;;;4.78;68.92;101470.88;5080310;27;45555;-85
2021/12/11 08:13:46;;;;;;;;;0.00;0.00;;;;;4.66;69.37;101439.38;5073801;27;45425;-85
2021/12/11 08:16:15;;;;;;;;;0.00;0.00;;;;;4.80;69.10;101470.94;5092224;27;45503;-87
2021/12/11 08:18:41;;;;;;;;;0.00;0.00;;;;;4.23;69.23;101395.38;5095635;27;45549;-86
2021/12/11 08:21:07;;;;;;;;;0.00;0.00;;;;;4.69;69.11;101483.38;5080133;27;45361;-89
2021/12/11 08:23:33;;;;;;;;;0.50;0.00;;;;;3.96;69.16;101393.31;5099150;27;45689;-84
2021/12/11 08:25:59;;;;;;;;;1.00;1.00;;;;;3.79;69.45;101364.16;5091399;27;45276;-85
2021/12/11 08:28:30;;;;;;;;;0.00;0.00;;;;;4.60;69.15;101480.38;5095417;27;45303;-85
2021/12/11 08:30:57;;;;;;;;;1.50;1.00;;;;;4.63;69.47;101485.66;5098666;27;45478;-85
2021/12/11 08:33:23;;;;;;;;;0.00;0.00;;;;;4.24;69.44;101407.47;5088690;27;45516;-87
2021/12/11 08:35:50;;;;;;;;;0.00;0.00;;;;;4.59;69.12;101455.41;5100499;27;46009;-87
2021/12/11 08:38:17;;;;;;;;;1.25;0.50;;;;;4.57;68.54;101445.00;5085198;27;45378;-85
2021/12/11 08:40:48;;;;;;;;;1.00;1.00;;;;;4.96;68.80;101498.28;5091791;27;45380;-88
2021/12/11 08:43:15;;;;;;;;;1.00;1.00;;;;;5.03;69.12;101483.97;5095208;27;45577;-85
2021/12/11 08:45:48;;;;;;;;;0.00;0.00;;;;;5.19;68.71;101475.19;5075503;27;46398;-87
2021/12/11 08:48:17;;;;;;;;;1.00;1.00;;;;;5.33;68.08;101481.81;5084032;27;45365;-84
2021/12/11 08:50:48;;;;;;;;;0.00;0.00;;;;;5.46;68.70;101495.25;5077626;27;45813;-83
2021/12/11 08:53:16;;;;;;;;;1.25;1.25;;;;;5.58;67.94;101498.31;5067500;27;45597;-83
2021/12/11 08:55:47;;;;;;;;;0.00;0.00;;;;;5.73;67.72;101496.31;5080648;27;46255;-82
2021/12/11 08:58:15;;;;;;;;;0.00;0.00;;;;;5.66;67.80;101467.66;5081499;27;46076;-82
2021/12/11 09:00:46;;;;;;;;;1.00;1.00;;;;;5.25;67.60;101379.03;5083614;27;45366;-84
2021/12/11 09:03:21;;;;;;;;;0.00;0.00;;;;;6.08;67.76;101496.88;5086546;27;45456;-83
2021/12/11 09:06:01;;;;;;;;;1.00;0.00;;;;;6.30;67.30;101510.66;5085684;27;45569;-84
2021/12/11 09:08:57;;;;;;;;;0.00;0.00;;;;;6.24;67.02;101475.09;5073510;27;45366;-83
2021/12/11 09:11:36;;;;;;;;;0.00;0.00;;;;;6.55;66.52;101509.88;5090718;27;45592;-83
2021/12/11 09:14:08;;;;;;;;;1.00;1.00;;;;;6.27;65.92;101463.97;5086270;27;45346;-84
2021/12/11 09:16:42;;;;;;;;;0.00;0.00;;;;;6.76;66.33;101520.97;5087339;27;45642;-82
2021/12/11 09:19:14;;;;;;;;;0.00;0.00;;;;;6.82;65.51;101534.16;5079971;27;45542;-86
2021/12/11 09:22:07;;;;;;;;;0.00;0.00;;;;;6.69;65.60;101538.88;5068196;27;45314;-85
2021/12/11 09:24:48;;;;;;;;;0.00;0.00;;;;;6.34;65.91;101476.31;5067698;27;45444;-81
2021/12/11 09:27:43;;;;;;;;;0.00;0.00;;;;;6.78;65.51;101550.38;5083757;27;45462;-82
2021/12/11 09:30:18;;;;;;;;;0.00;0.00;;;;;6.78;65.67;101563.31;5085905;27;45470;-85
2021/12/11 09:32:56;;;;;;;;;0.00;0.00;;;;;6.71;65.63;101568.28;5079799;27;45574;-84
2021/12/11 09:35:31;;;;;;;;;0.25;0.00;;;;;6.47;65.60;101565.63;5088477;27;45463;-84
2021/12/11 09:38:01;;;;;;;;;0.00;0.00;;;;;5.75;65.24;101451.63;5088309;27;45374;-83
2021/12/11 09:40:27;;;;;;;;;0.25;0.25;;;;;6.44;65.84;101581.03;5088930;27;45350;-85
2021/12/11 09:42:52;;;;;;;;;0.00;0.00;;;;;6.24;65.69;101550.09;5090963;27;45788;-85
2021/12/11 09:45:23;;;;;;;;;3.00;0.00;;;;;6.42;65.71;101587.84;5100473;27;45675;-83
2021/12/11 09:48:00;;;;;;;;;0.00;0.00;;;;;6.45;65.88;101590.56;5099579;27;45503;-85
2021/12/11 09:50:44;;;;;;;;;0.00;0.00;;;;;5.93;65.64;101497.13;5087621;27;45350;-83
2021/12/11 09:53:11;;;;;;;;;0.00;0.00;;;;;6.02;65.74;101523.34;5085994;27;45597;-83
2021/12/11 09:55:39;;;;;;;;;0.00;0.00;;;;;6.41;65.58;101604.19;5064010;27;45519;-82
2021/12/11 09:58:09;;;;;;;;;5.00;0.00;;;;;6.30;65.82;101568.44;5073498;27;45514;-83
2021/12/11 10:00:45;;;;;;;;;0.00;0.00;;;;;6.49;65.50;101588.97;5072991;27;45422;-84
2021/12/11 10:03:15;;;;;;;;;0.00;0.00;;;;;6.55;65.62;101599.53;5069712;27;45406;-83
2021/12/11 10:05:49;;;;;;;;;0.00;0.00;;;;;6.27;65.56;101550.22;5093147;27;45370;-84
2021/12/11 10:08:31;;;;;;;;;0.00;0.00;;;;;6.26;65.41;101551.03;5069157;27;47471;-83
2021/12/11 10:11:20;;;;;;;;;0.00;0.00;;;;;6.69;65.55;101616.50;5081667;27;45292;-83
2021/12/11 10:13:54;;;;;;;;;0.00;0.00;;;;;6.75;65.97;101617.56;5069220;27;45464;-83
2021/12/11 10:16:22;;;;;;;;;1.00;0.00;;;;;6.49;65.46;101576.91;5094030;27;45401;-81
2021/12/11 10:18:48;;;;;;;;;0.00;0.00;;;;;6.63;65.19;101576.56;5089106;27;46123;-82
2021/12/11 10:21:36;;;;;;;;;0.75;0.75;;;;;6.29;65.66;101527.88;5084025;27;45512;-82
2021/12/11 10:24:07;;;;;;;;;0.75;0.25;;;;;6.52;65.14;101558.06;5088918;27;45443;-79
2021/12/11 10:26:34;;;;;;;;;3.00;0.00;;;;;6.93;65.36;101619.97;5072117;27;45492;-81
2021/12/11 10:29:05;;;;;;;;;0.00;0.00;;;;;6.58;65.40;101559.16;5093118;27;46629;-83
2021/12/11 10:31:39;;;;;;;;;0.00;0.00;;;;;6.82;65.61;101584.22;5083336;27;45443;-83
2021/12/11 10:34:08;;;;;;;;;1.00;0.00;;;;;6.68;64.75;101562.97;5077748;27;45517;-83
2021/12/11 10:36:40;;;;;;;;;0.00;0.00;;;;;6.67;65.14;101555.16;5097157;27;45496;-82
2021/12/11 10:39:09;;;;;;;;;0.00;0.00;;;;;6.54;65.00;101525.34;5103682;27;47674;-84
2021/12/11 10:41:35;;;;;;;;;0.00;0.00;;;;;6.57;64.80;101531.53;5085038;27;47413;-85
2021/12/11 10:44:06;;;;;;;;;0.00;0.00;;;;;6.74;64.38;101564.03;5094325;27;45475;-84
2021/12/11 10:46:42;;;;;;;;;0.00;0.00;;;;;7.06;64.66;101626.50;5082054;27;45463;-83
2021/12/11 10:49:10;;;;;;;;;1.00;0.00;;;;;7.07;65.17;101626.56;5080177;27;47905;-83
2021/12/11 10:51:41;;;;;;;;;0.00;0.00;;;;;7.07;64.98;101608.44;5090093;27;45458;-84
2021/12/11 10:54:12;;;;;;;;;0.00;0.00;;;;;7.17;65.27;101619.13;5083065;27;45389;-82
2021/12/11 10:56:38;;;;;;;;;0.00;0.00;;;;;7.18;64.74;101601.06;5080681;28;45497;-84
2021/12/11 10:59:09;;;;;;;;;0.00;0.00;;;;;6.89;64.03;101536.13;5093800;27;45459;-83
2021/12/11 11:01:41;;;;;;;;;0.00;0.00;;;;;7.16;63.84;101537.97;5095894;27;45366;-85
2021/12/11 11:04:11;;;;;;;;;0.00;0.00;;;;;6.97;63.95;101480.34;5090050;27;45393;-83
2021/12/11 11:06:40;;;;;;;;;0.00;0.00;;;;;7.93;63.69;101621.78;5090252;27;45446;-83
2021/12/11 11:09:08;;;;;;;;;1.00;0.00;;;;;7.82;63.26;101603.28;5100201;27;46204;-81
2021/12/11 11:11:35;;;;;;;;;2.00;0.50;;;;;7.58;63.03;101573.09;5087797;27;45343;-88
2021/12/11 11:14:01;;;;;;;;;0.00;0.00;;;;;7.62;62.59;101565.44;5099507;27;45357;-81
2021/12/11 11:16:28;;;;;;;;;0.00;0.00;;;;;7.59;62.72;101558.41;5092006;27;45516;-87
2021/12/11 11:18:54;;;;;;;;;0.00;0.00;;;;;7.54;63.04;101529.78;5090440;27;46354;-80
2021/12/11 11:21:24;;;;;;;;;0.00;0.00;;;;;8.19;62.69;101626.06;5069236;28;45867;-84
2021/12/11 11:23:50;;;;;;;;;0.00;0.00;;;;;8.13;62.89;101599.94;5079041;27;45261;-81
2021/12/11 11:26:20;;;;;;;;;0.00;0.00;;;;;8.05;62.59;101565.97;5080252;27;45287;-83
2021/12/11 11:28:45;;;;;;;;;0.00;0.00;;;;;8.48;62.10;101633.91;5099468;27;45389;-86
2021/12/11 11:31:20;;;;;;;;;0.00;0.00;;;;;7.91;61.96;101534.41;5085188;27;45397;-81
2021/12/11 11:33:47;;;;;;;;;0.00;0.00;;;;;8.38;62.19;101627.56;5077227;27;45544;-81
2021/12/11 11:36:17;;;;;;;;;0.00;0.00;;;;;7.77;61.62;101540.03;5069726;27;45645;-80
2021/12/11 11:38:48;;;;;;;;;0.00;0.00;;;;;7.87;62.71;101572.31;5075205;27;45676;-82
2021/12/11 11:41:18;;;;;;;;;1.00;1.00;;;;;8.09;62.37;101602.41;5074749;28;45308;-83
2021/12/11 11:43:45;;;;;;;;;0.25;0.00;;;;;8.13;62.11;101634.53;5079885;27;45481;-83
2021/12/11 11:46:11;;;;;;;;;0.00;0.00;;;;;7.96;62.85;101615.81;5098599;27;45507;-84
2021/12/11 11:48:40;;;;;;;;;0.00;0.00;;;;;7.69;62.61;101563.09;5076305;27;45489;-83
2021/12/11 11:51:12;;;;;;;;;0.00;0.00;;;;;8.05;62.75;101642.06;5082735;27;45427;-79
2021/12/11 11:53:44;;;;;;;;;1.50;1.50;;;;;7.89;62.45;101614.72;5085171;27;45579;-81
2021/12/11 11:56:16;;;;;;;;;0.75;0.75;;;;;8.01;63.01;101647.09;5094583;27;46079;-80
2021/12/11 11:58:42;;;;;;;;;2.00;0.00;;;;;8.05;63.07;101642.06;5080973;27;46202;-80
2021/12/11 12:01:11;;;;;;;;;1.00;0.50;;;;;7.86;63.09;101620.69;5089116;27;45899;-80
2021/12/11 12:03:37;;;;;;;;;0.00;0.00;;;;;7.89;62.97;101621.63;5072459;27;45452;-81
2021/12/11 12:06:10;;;;;;;;;0.00;0.00;;;;;8.05;62.45;101652.44;5097966;27;45419;-81